createdAt,value
2018-07-30T00:01:21.857Z,21.50
2018-07-30T00:03:50.682Z,21.50
2018-07-30T00:06:19.500Z,21.50
2018-07-30T00:08:48.330Z,21.50
2018-07-30T00:11:17.133Z,21.50
2018-07-30T00:13:45.904Z,21.50
2018-07-30T00:16:14.671Z,21.50
2018-07-30T00:18:43.442Z,21.40
2018-07-30T00:21:12.229Z,21.40
2018-07-30T00:23:41.014Z,21.30
2018-07-30T00:26:09.802Z,21.30
2018-07-30T00:28:38.590Z,21.30
2018-07-30T00:31:07.377Z,21.30
2018-07-30T00:33:36.169Z,21.30
2018-07-30T00:36:04.956Z,21.30
2018-07-30T00:38:33.726Z,21.30
2018-07-30T00:41:02.477Z,21.40
2018-07-30T00:43:31.351Z,21.40
2018-07-30T00:46:00.123Z,21.40
2018-07-30T00:48:28.922Z,21.40
2018-07-30T00:50:57.699Z,21.40
2018-07-30T00:53:26.501Z,21.50
2018-07-30T00:55:55.366Z,21.50
2018-07-30T00:58:24.143Z,21.50
2018-07-30T01:00:52.947Z,21.50
2018-07-30T01:03:21.854Z,21.60
2018-07-30T01:05:50.634Z,21.60
2018-07-30T01:08:19.459Z,21.50
2018-07-30T01:10:48.263Z,21.30
2018-07-30T01:13:17.079Z,21.30
2018-07-30T01:15:45.895Z,21.30
2018-07-30T01:18:14.661Z,21.30
2018-07-30T01:20:43.461Z,21.30
2018-07-30T01:23:12.238Z,21.20
2018-07-30T01:25:41.179Z,21.20
2018-07-30T01:28:09.982Z,21.20
2018-07-30T01:30:38.744Z,21.20
2018-07-30T01:33:07.572Z,21.10
2018-07-30T01:35:36.369Z,21.10
2018-07-30T01:38:05.144Z,21.10
2018-07-30T01:40:33.946Z,21.10
2018-07-30T01:43:02.787Z,21.00
2018-07-30T01:45:31.617Z,21.00
2018-07-30T01:48:06.766Z,21.00
2018-07-30T01:50:35.621Z,21.00
2018-07-30T01:53:04.410Z,20.90
2018-07-30T01:55:33.294Z,20.90
2018-07-30T02:00:30.510Z,20.90
2018-07-30T02:02:59.326Z,20.90
2018-07-30T02:05:28.175Z,20.90
2018-07-30T02:07:57.052Z,20.90
2018-07-30T02:10:25.894Z,21.00
2018-07-30T02:12:54.752Z,21.00
2018-07-30T02:15:23.533Z,21.00
2018-07-30T02:17:52.387Z,21.10
2018-07-30T02:20:21.256Z,21.10
2018-07-30T02:22:50.079Z,21.20
2018-07-30T02:25:18.951Z,21.20
2018-07-30T02:27:47.751Z,21.20
2018-07-30T02:30:16.492Z,21.20
2018-07-30T02:32:45.360Z,21.30
2018-07-30T02:35:14.138Z,21.30
2018-07-30T02:37:43.027Z,21.30
2018-07-30T02:40:11.902Z,21.30
2018-07-30T02:42:40.720Z,21.40
2018-07-30T02:45:09.531Z,21.40
2018-07-30T02:47:38.378Z,21.40
2018-07-30T02:50:07.573Z,21.40
2018-07-30T02:52:36.305Z,21.40
2018-07-30T02:55:05.154Z,21.40
2018-07-30T02:57:33.935Z,21.40
2018-07-30T03:00:02.717Z,21.40
2018-07-30T03:02:31.531Z,21.50
2018-07-30T03:05:00.363Z,21.50
2018-07-30T03:07:29.178Z,21.50
2018-07-30T03:09:58.010Z,21.40
2018-07-30T03:12:26.792Z,21.40
2018-07-30T03:14:55.610Z,21.40
2018-07-30T03:17:24.421Z,21.50
2018-07-30T03:19:53.245Z,21.50
2018-07-30T03:22:22.055Z,21.50
2018-07-30T03:24:50.859Z,21.60
2018-07-30T03:27:19.660Z,21.60
2018-07-30T03:29:48.478Z,21.70
2018-07-30T03:32:17.348Z,21.70
2018-07-30T03:34:46.099Z,21.80
2018-07-30T03:37:14.858Z,21.90
2018-07-30T03:39:43.611Z,22.00
2018-07-30T03:42:12.429Z,22.00
2018-07-30T03:44:41.214Z,22.00
2018-07-30T03:47:10.146Z,22.10
2018-07-30T03:49:38.970Z,22.20
2018-07-30T03:52:07.802Z,22.20
2018-07-30T03:54:36.625Z,22.10
2018-07-30T03:57:05.444Z,22.10
2018-07-30T03:59:34.239Z,22.20
2018-07-30T04:02:03.045Z,22.10
2018-07-30T04:04:31.882Z,22.20
2018-07-30T04:07:00.694Z,22.20
2018-07-30T04:09:29.471Z,22.20
2018-07-30T04:11:58.350Z,22.20
2018-07-30T04:14:27.151Z,22.30
2018-07-30T04:16:55.971Z,22.40
2018-07-30T04:19:24.754Z,22.50
2018-07-30T04:21:56.046Z,22.60
2018-07-30T04:24:24.816Z,22.60
2018-07-30T04:26:53.615Z,22.70
2018-07-30T04:29:22.405Z,22.80
2018-07-30T04:31:51.175Z,22.90
2018-07-30T04:34:19.988Z,23.00
2018-07-30T04:36:48.738Z,23.10
2018-07-30T04:39:17.523Z,23.10
2018-07-30T04:41:46.318Z,23.20
2018-07-30T04:44:15.083Z,23.30
2018-07-30T04:46:43.879Z,23.40
2018-07-30T04:49:12.732Z,23.60
2018-07-30T04:51:41.535Z,23.60
2018-07-30T04:54:10.333Z,23.70
2018-07-30T04:56:39.134Z,23.80
2018-07-30T04:59:07.927Z,23.90
2018-07-30T05:01:36.730Z,24.00
2018-07-30T05:04:05.649Z,24.00
2018-07-30T05:06:34.494Z,23.90
2018-07-30T05:09:03.434Z,24.00
2018-07-30T05:11:32.230Z,24.00
2018-07-30T05:14:01.046Z,24.00
2018-07-30T05:16:29.849Z,23.90
2018-07-30T05:18:58.630Z,23.90
2018-07-30T05:21:27.419Z,23.90
2018-07-30T05:23:56.203Z,24.00
2018-07-30T05:26:25.037Z,23.90
2018-07-30T05:28:53.854Z,24.00
2018-07-30T05:31:22.662Z,24.10
2018-07-30T05:36:19.826Z,24.20
2018-07-30T05:38:48.614Z,24.20
2018-07-30T05:41:17.419Z,24.30
2018-07-30T05:43:46.214Z,24.30
2018-07-30T05:46:15.037Z,24.20
2018-07-30T05:48:43.813Z,24.30
2018-07-30T05:51:12.575Z,24.50
2018-07-30T05:53:41.346Z,24.50
2018-07-30T05:56:10.258Z,24.50
2018-07-30T05:58:39.083Z,24.40
2018-07-30T06:01:08.540Z,24.50
2018-07-30T06:03:37.319Z,24.60
2018-07-30T06:06:06.663Z,24.80
2018-07-30T06:08:35.462Z,25.00
2018-07-30T06:11:04.367Z,25.20
2018-07-30T06:13:33.157Z,25.30
2018-07-30T06:16:01.928Z,25.40
2018-07-30T06:18:30.726Z,25.40
2018-07-30T06:20:59.552Z,25.40
2018-07-30T06:23:28.331Z,25.40
2018-07-30T06:25:57.090Z,25.40
2018-07-30T06:28:25.886Z,25.40
2018-07-30T06:30:54.979Z,25.40
2018-07-30T06:33:23.739Z,25.30
2018-07-30T06:35:52.497Z,25.40
2018-07-30T06:38:21.292Z,25.40
2018-07-30T06:40:50.088Z,25.40
2018-07-30T06:43:18.813Z,25.40
2018-07-30T06:45:47.602Z,25.30
2018-07-30T06:48:16.378Z,25.20
2018-07-30T06:50:45.210Z,25.20
2018-07-30T06:53:14.039Z,25.20
2018-07-30T06:55:42.841Z,25.10
2018-07-30T06:58:11.975Z,25.20
2018-07-30T07:33:55.084Z,24.80
2018-07-30T07:36:24.055Z,23.80
2018-07-30T07:38:52.975Z,23.70
2018-07-30T07:41:21.863Z,24.00
2018-07-30T10:18:29.686Z,23.00
2018-07-30T10:20:58.517Z,23.00
2018-07-30T10:23:27.355Z,23.10
2018-07-30T10:25:56.138Z,23.10
2018-07-30T10:28:24.898Z,23.20
2018-07-30T10:30:53.691Z,23.30
2018-07-30T10:33:22.506Z,23.20
2018-07-30T10:35:51.283Z,23.30
2018-07-30T10:38:20.146Z,23.30
2018-07-30T10:40:48.914Z,23.20
2018-07-30T10:43:17.830Z,23.10
2018-07-30T10:45:46.690Z,23.10
2018-07-30T10:48:15.510Z,23.10
2018-07-30T10:50:44.320Z,22.90
2018-07-30T10:53:13.094Z,22.60
2018-07-30T10:55:41.926Z,22.30
2018-07-30T10:58:11.086Z,22.20
2018-07-30T11:00:39.896Z,22.20
2018-07-30T11:03:08.731Z,22.20
2018-07-30T11:05:37.542Z,22.30
2018-07-30T11:08:06.311Z,22.40
2018-07-30T11:10:35.147Z,22.30
2018-07-30T11:13:04.306Z,22.40
2018-07-30T11:15:33.099Z,22.40
2018-07-30T11:18:01.938Z,22.30
2018-07-30T11:20:30.698Z,22.30
2018-07-30T11:22:59.493Z,22.30
2018-07-30T11:27:56.767Z,22.50
2018-07-30T11:30:25.566Z,22.50
2018-07-30T11:32:54.341Z,22.50
2018-07-30T11:35:23.086Z,22.60
2018-07-30T11:37:51.926Z,22.40
2018-07-30T11:40:20.714Z,22.30
2018-07-30T11:42:49.547Z,22.10
2018-07-30T11:45:18.282Z,22.10
2018-07-30T11:47:47.051Z,22.10
2018-07-30T11:50:15.799Z,22.00
2018-07-30T11:52:44.566Z,22.20
2018-07-30T11:55:13.343Z,22.40
2018-07-30T11:57:42.408Z,22.50
2018-07-30T12:00:11.223Z,22.90
2018-07-30T12:02:40.247Z,23.60
2018-07-30T12:05:09.029Z,24.30
2018-07-30T12:07:37.850Z,24.80
2018-07-30T12:10:06.718Z,25.90
2018-07-30T12:12:35.474Z,26.40
2018-07-30T12:15:04.339Z,27.30
2018-07-30T12:20:01.550Z,27.10
2018-07-30T12:22:30.382Z,27.50
2018-07-30T12:24:59.557Z,27.00
2018-07-30T12:27:28.377Z,26.00
2018-07-30T12:29:57.179Z,25.30
2018-07-30T12:32:25.943Z,25.40
2018-07-30T12:34:55.306Z,26.50
2018-07-30T12:37:24.083Z,27.80
2018-07-30T12:39:52.951Z,28.60
2018-07-30T12:42:21.710Z,29.40
2018-07-30T12:44:50.489Z,30.30
2018-07-30T12:47:19.348Z,30.60
2018-07-30T12:49:48.442Z,30.50
2018-07-30T12:52:17.242Z,30.80
2018-07-30T12:54:46.022Z,30.50
2018-07-30T12:57:14.818Z,29.80
2018-07-30T12:59:44.090Z,29.90
2018-07-30T13:02:12.871Z,30.50
2018-07-30T13:04:41.638Z,30.60
2018-07-30T13:07:10.702Z,32.30
2018-07-30T13:09:39.474Z,32.20
2018-07-30T13:12:08.306Z,32.40
2018-07-30T13:14:37.090Z,32.60
2018-07-30T13:17:05.869Z,32.00
2018-07-30T13:19:34.670Z,33.10
2018-07-30T13:22:03.430Z,34.60
2018-07-30T13:24:32.214Z,34.50
2018-07-30T13:27:01.011Z,33.00
2018-07-30T13:29:30.102Z,31.80
2018-07-30T13:31:58.892Z,34.20
2018-07-30T13:34:27.658Z,35.70
2018-07-30T13:36:56.414Z,37.00
2018-07-30T13:39:25.200Z,37.30
2018-07-30T13:41:54.006Z,35.60
2018-07-30T13:44:22.797Z,34.80
2018-07-30T13:46:51.610Z,35.40
2018-07-30T13:49:20.380Z,36.00
2018-07-30T13:51:49.147Z,35.90
2018-07-30T13:54:18.032Z,35.60
2018-07-30T13:56:46.757Z,37.60
2018-07-30T13:59:15.532Z,35.80
2018-07-30T14:01:44.289Z,35.80
2018-07-30T14:04:13.062Z,35.70
2018-07-30T14:06:41.909Z,35.60
2018-07-30T14:09:11.874Z,35.30
2018-07-30T14:11:40.694Z,33.70
2018-07-30T14:14:10.259Z,32.30
2018-07-30T14:16:39.718Z,31.90
2018-07-30T14:19:08.502Z,32.90
2018-07-30T14:21:37.343Z,31.80
2018-07-30T14:24:06.591Z,31.80
2018-07-30T14:26:35.557Z,31.20
2018-07-30T14:29:04.364Z,32.00
2018-07-30T14:31:33.162Z,32.60
2018-07-30T14:36:30.294Z,32.30
2018-07-30T14:38:59.059Z,32.00
2018-07-30T14:41:27.858Z,32.90
2018-07-30T14:43:56.610Z,32.80
2018-07-30T14:46:25.410Z,33.70
2018-07-30T14:48:54.251Z,34.40
2018-07-30T14:51:23.013Z,34.50
2018-07-30T14:53:51.830Z,34.80
2018-07-30T14:56:20.610Z,34.20
2018-07-30T14:58:49.698Z,33.10
2018-07-30T15:01:18.546Z,33.30
2018-07-30T15:03:47.302Z,35.10
2018-07-30T15:06:16.141Z,36.60
2018-07-30T15:08:45.420Z,37.80
2018-07-30T15:11:14.387Z,35.90
2018-07-30T15:13:43.174Z,33.40
2018-07-30T15:16:11.982Z,32.00
2018-07-30T15:18:40.834Z,32.20
2018-07-30T15:21:09.650Z,32.30
2018-07-30T15:23:38.451Z,31.50
2018-07-30T15:26:07.228Z,31.50
2018-07-30T15:28:35.982Z,31.50
2018-07-30T15:31:04.791Z,31.50
2018-07-30T15:33:33.866Z,31.20
2018-07-30T15:36:02.658Z,32.10
2018-07-30T15:38:31.446Z,32.60
2018-07-30T15:41:00.206Z,32.80
2018-07-30T15:43:28.966Z,33.10
2018-07-30T15:45:57.739Z,32.30
2018-07-30T15:48:26.506Z,32.60
2018-07-30T15:50:55.322Z,33.60
2018-07-30T15:53:24.086Z,32.30
2018-07-30T15:55:52.895Z,32.20
2018-07-30T15:58:21.694Z,32.60
2018-07-30T16:00:50.475Z,32.10
2018-07-30T16:03:19.270Z,31.60
2018-07-30T16:05:48.101Z,32.20
2018-07-30T16:08:16.874Z,32.90
2018-07-30T16:10:46.014Z,32.70
2018-07-30T16:13:14.798Z,31.80
2018-07-30T16:15:43.693Z,31.50
2018-07-30T16:18:12.462Z,31.50
2018-07-30T16:20:41.229Z,32.80
2018-07-30T16:23:10.053Z,33.90
2018-07-30T16:25:38.818Z,34.50
2018-07-30T16:28:07.656Z,34.10
2018-07-30T16:30:36.482Z,32.10
2018-07-30T16:33:05.357Z,31.90
2018-07-30T16:35:34.485Z,32.20
2018-07-30T16:38:03.345Z,33.10
2018-07-30T16:40:32.118Z,32.30
2018-07-30T16:43:01.226Z,33.00
2018-07-30T16:45:30.088Z,31.70
2018-07-30T16:47:59.164Z,32.10
2018-07-30T16:50:27.962Z,32.10
2018-07-30T16:52:56.732Z,30.80
2018-07-30T16:55:25.505Z,30.90
2018-07-30T16:57:54.265Z,31.30
2018-07-30T17:00:23.071Z,30.90
2018-07-30T17:02:51.883Z,31.40
2018-07-30T17:05:20.689Z,32.20
2018-07-30T17:07:49.503Z,32.20
2018-07-30T17:10:18.274Z,31.90
2018-07-30T17:12:47.297Z,32.30
2018-07-30T17:15:16.066Z,32.60
2018-07-30T17:17:44.842Z,32.80
2018-07-30T17:20:14.378Z,32.30
2018-07-30T17:22:43.826Z,32.70
2018-07-30T17:25:12.616Z,32.80
2018-07-30T17:27:41.391Z,32.70
2018-07-30T17:30:10.518Z,32.20
2018-07-30T17:32:39.286Z,31.40
2018-07-30T17:35:08.078Z,30.40
2018-07-30T17:37:37.069Z,29.80
2018-07-30T17:40:07.121Z,29.20
2018-07-30T17:45:04.714Z,28.50
2018-07-30T17:47:33.474Z,28.10
2018-07-30T17:50:02.246Z,27.90
2018-07-30T17:52:30.997Z,27.60
2018-07-30T17:55:00.103Z,27.40
2018-07-30T17:57:29.138Z,27.20
2018-07-30T17:59:57.938Z,26.90
2018-07-30T18:02:26.977Z,26.70
2018-07-30T18:04:56.015Z,26.40
2018-07-30T18:07:24.815Z,26.20
2018-07-30T18:09:53.586Z,25.90
2018-07-30T18:12:22.741Z,25.80
2018-07-30T18:14:51.497Z,25.60
2018-07-30T18:17:20.286Z,25.50
2018-07-30T18:19:49.154Z,25.40
2018-07-30T18:22:17.974Z,25.40
2018-07-30T18:24:46.768Z,25.30
2018-07-30T18:27:15.762Z,25.30
2018-07-30T18:29:44.591Z,25.20
2018-07-30T18:32:13.395Z,25.20
2018-07-30T18:34:42.166Z,25.10
2018-07-30T18:37:10.937Z,25.00
2018-07-30T18:39:39.723Z,24.90
2018-07-30T18:42:08.536Z,24.90
2018-07-30T18:44:37.334Z,24.80
2018-07-30T18:47:06.094Z,24.80
2018-07-30T18:49:34.866Z,24.70
2018-07-30T18:52:03.986Z,24.60
2018-07-30T18:54:32.810Z,24.50
2018-07-30T18:57:01.614Z,24.50
2018-07-30T18:59:30.426Z,24.40
2018-07-30T19:01:59.213Z,24.30
2018-07-30T19:04:27.998Z,24.20
2018-07-30T19:06:56.742Z,24.10
2018-07-30T19:09:25.522Z,24.10
2018-07-30T19:11:54.322Z,24.10
2018-07-30T19:14:23.078Z,24.10
2018-07-30T19:16:53.569Z,24.00
2018-07-30T19:19:23.071Z,24.00
2018-07-30T19:21:52.098Z,23.90
2018-07-30T19:24:21.358Z,23.90
2018-07-30T19:26:50.185Z,23.90
2018-07-30T19:29:18.986Z,23.80
2018-07-30T19:31:47.786Z,23.80
2018-07-30T19:34:16.545Z,23.70
2018-07-30T19:36:45.590Z,23.60
2018-07-30T19:39:14.695Z,23.50
2018-07-30T19:41:43.476Z,23.40
2018-07-30T19:44:12.668Z,23.30
2018-07-30T19:46:41.670Z,23.30
2018-07-30T19:49:10.438Z,23.20
2018-07-30T19:51:39.240Z,23.10
2018-07-30T19:54:08.123Z,23.00
2018-07-30T19:56:36.874Z,23.00
2018-07-30T19:59:06.591Z,22.90
2018-07-30T20:01:35.452Z,22.90
2018-07-30T20:04:04.717Z,22.90
2018-07-30T20:06:33.718Z,22.90
2018-07-30T20:09:02.522Z,22.70
2018-07-30T20:11:31.273Z,22.70
2018-07-30T20:14:00.378Z,22.70
2018-07-30T20:16:29.134Z,22.60
2018-07-30T20:18:58.221Z,22.60
2018-07-30T20:21:26.987Z,22.60
2018-07-30T20:23:55.790Z,22.60
2018-07-30T20:26:24.612Z,22.60
2018-07-30T20:28:53.370Z,22.60
2018-07-30T20:31:24.138Z,22.60
2018-07-30T20:33:54.290Z,22.50
2018-07-30T20:36:23.866Z,22.50
2018-07-30T20:38:53.477Z,22.50
2018-07-30T20:41:22.867Z,22.40
2018-07-30T20:43:52.268Z,22.30
2018-07-30T20:46:21.086Z,22.30
2018-07-30T20:48:49.897Z,22.30
2018-07-30T20:53:47.099Z,22.20
2018-07-30T20:56:16.207Z,22.20
2018-07-30T20:58:45.304Z,22.20
2018-07-30T21:01:14.402Z,22.10
2018-07-30T21:03:43.496Z,22.10
2018-07-30T21:06:12.262Z,22.10
2018-07-30T21:08:41.346Z,22.10
2018-07-30T21:11:10.145Z,22.00
2018-07-30T21:13:38.938Z,22.00
2018-07-30T21:16:07.719Z,21.90
2018-07-30T21:18:36.789Z,21.90
2018-07-30T21:21:05.545Z,21.90
2018-07-30T21:23:34.443Z,21.80
2018-07-30T21:26:03.206Z,21.80
2018-07-30T21:28:31.953Z,21.80
2018-07-30T21:31:00.730Z,21.70
2018-07-30T21:33:29.506Z,21.70
2018-07-30T21:35:58.263Z,21.70
2018-07-30T21:38:27.123Z,21.70
2018-07-30T21:40:55.931Z,21.70
2018-07-30T21:43:24.702Z,21.70
2018-07-30T21:45:53.901Z,21.80
2018-07-30T21:48:22.645Z,21.70
2018-07-30T21:50:51.448Z,21.80
2018-07-30T21:53:20.225Z,21.70
2018-07-30T21:55:48.990Z,21.70
2018-07-30T21:58:17.764Z,21.70
2018-07-30T22:00:58.946Z,21.70
2018-07-30T22:03:27.881Z,21.60
2018-07-30T22:06:01.907Z,21.50
2018-07-30T22:08:30.695Z,21.50
2018-07-30T22:10:59.498Z,21.40
2018-07-30T22:13:28.370Z,21.50
2018-07-30T22:15:57.174Z,21.40
2018-07-30T22:18:25.974Z,21.40
2018-07-30T22:20:55.050Z,21.40
2018-07-30T22:23:23.838Z,21.40
2018-07-30T22:25:52.602Z,21.40
2018-07-30T22:28:21.369Z,21.40
2018-07-30T22:30:50.175Z,21.40
2018-07-30T22:33:18.928Z,21.40
2018-07-30T22:35:47.754Z,21.30
2018-07-30T22:38:16.525Z,21.40
2018-07-30T22:40:45.321Z,21.30
2018-07-30T22:43:14.158Z,21.30
2018-07-30T22:45:42.926Z,21.30
2018-07-30T22:48:11.674Z,21.30
2018-07-30T22:50:40.530Z,21.20
2018-07-30T22:53:09.305Z,21.20
2018-07-30T22:55:41.034Z,21.20
2018-07-30T22:58:09.865Z,21.20
2018-07-30T23:00:38.612Z,21.30
2018-07-30T23:03:07.505Z,21.30
2018-07-30T23:05:36.303Z,21.30
2018-07-30T23:08:05.086Z,21.30
2018-07-30T23:10:33.866Z,21.30
2018-07-30T23:13:02.617Z,21.20
2018-07-30T23:15:31.387Z,21.20
2018-07-30T23:18:00.262Z,19.90
2018-07-30T23:20:29.118Z,21.20
2018-07-30T23:22:57.884Z,21.20
2018-07-30T23:25:26.698Z,21.20
2018-07-30T23:27:55.466Z,21.10
2018-07-30T23:30:24.238Z,21.10
2018-07-30T23:32:52.990Z,21.10
2018-07-30T23:35:21.838Z,21.00
2018-07-30T23:37:50.881Z,21.10
2018-07-30T23:40:19.653Z,21.00
2018-07-30T23:42:48.765Z,21.00
2018-07-30T23:45:17.537Z,20.90
2018-07-30T23:47:46.289Z,20.90
2018-07-30T23:50:15.043Z,20.90
2018-07-30T23:52:43.834Z,20.80
2018-07-30T23:55:12.622Z,20.80
2018-07-30T23:57:41.390Z,20.80
